Time;durP1;ratioP1;P1;durP2;ratioP2;P2;SDS_P1;SDS_P2;PMS_P1;PMS_P2;Temp;Humidity;BMP_temperature;BMP_pressure;BME280_temperature;BME280_humidity;BME280_pressure;Samples;Min_cycle;Max_cycle;Signal;HPM_P1;HPM_P2
2022/05/25 00:02:06;;;;;;;9.68;7.45;;;;;;;7.62;100.00;100810.66;1751068;81;21642;-92
2022/05/25 00:04:35;;;;;;;11.45;6.78;;;;;;;7.64;100.00;100807.52;1750903;81;21017;-91
2022/05/25 00:07:02;;;;;;;9.53;6.08;;;;;;;7.69;100.00;100805.48;1750757;82;21092;-95
2022/05/25 00:09:30;;;;;;;9.28;5.78;;;;;;;7.76;100.00;100818.44;1751021;81;21050;-93
2022/05/25 00:11:57;;;;;;;9.33;6.08;;;;;;;7.83;100.00;100814.55;1750986;81;21044;-89
2022/05/25 00:14:25;;;;;;;9.00;6.55;;;;;;;7.97;100.00;100816.79;1750788;81;21006;-92
2022/05/25 00:16:53;;;;;;;10.03;6.80;;;;;;;8.15;100.00;100820.83;1750991;81;21055;-90
2022/05/25 00:22:06;;;;;;;9.30;7.65;;;;;;;8.41;100.00;100815.78;1751039;81;20955;-90
2022/05/25 00:24:33;;;;;;;13.78;7.60;;;;;;;8.42;100.00;100817.45;1750990;81;21143;-89
2022/05/25 00:27:02;;;;;;;9.43;6.90;;;;;;;8.41;100.00;100825.34;1751016;81;21099;-89
2022/05/25 00:29:29;;;;;;;8.45;7.00;;;;;;;8.33;100.00;100824.51;1750872;81;21054;-86
2022/05/25 00:31:56;;;;;;;10.88;7.17;;;;;;;8.21;100.00;100825.62;1751181;81;21140;-87
2022/05/25 00:34:23;;;;;;;9.65;7.30;;;;;;;8.04;100.00;100830.57;1750937;81;21058;-88
2022/05/25 00:36:51;;;;;;;13.50;7.75;;;;;;;7.89;100.00;100828.44;1751344;81;21114;-88
2022/05/25 00:39:18;;;;;;;10.55;7.10;;;;;;;7.78;100.00;100825.67;1746700;81;21066;-89
2022/05/25 00:41:46;;;;;;;10.10;6.12;;;;;;;7.67;100.00;100831.95;1720596;83;21037;-89
2022/05/25 00:44:13;;;;;;;10.30;7.45;;;;;;;7.59;100.00;100831.13;1746685;82;21503;-88
2022/05/25 00:46:40;;;;;;;11.97;7.80;;;;;;;7.48;100.00;100830.46;1746512;81;21472;-87
2022/05/25 00:49:24;;;;;;;10.35;7.83;;;;;;;7.38;100.00;100829.33;1728778;83;21143;-87
2022/05/25 00:52:08;;;;;;;12.43;7.87;;;;;;;7.28;100.00;100829.48;1728034;83;21040;-90
2022/05/25 00:54:39;;;;;;;12.78;7.80;;;;;;;7.14;100.00;100827.23;1728823;82;20967;-89
2022/05/25 00:57:19;;;;;;;9.85;7.17;;;;;;;7.02;100.00;100835.67;1728519;82;21156;-90
2022/05/25 01:00:00;;;;;;;10.10;7.60;;;;;;;6.90;100.00;100847.12;1725134;83;21037;-90
2022/05/25 01:02:29;;;;;;;15.15;7.30;;;;;;;6.83;100.00;100839.77;1703572;83;21254;-90
2022/05/25 01:04:57;;;;;;;9.73;7.95;;;;;;;6.83;100.00;100845.80;1728413;82;21519;-89
2022/05/25 01:07:57;;;;;;;10.58;7.83;;;;;;;6.84;100.00;100851.35;1728529;83;21053;-89
2022/05/25 01:10:36;;;;;;;10.72;7.55;;;;;;;6.86;100.00;100851.25;1728863;83;21523;-90
2022/05/25 01:13:27;;;;;;;9.73;8.08;;;;;;;6.80;100.00;100851.13;1725229;83;21105;-91
2022/05/25 01:16:14;;;;;;;12.28;8.78;;;;;;;6.74;100.00;100851.48;1726687;82;21097;-91
2022/05/25 01:19:32;;;;;;;9.10;7.47;;;;;;;6.73;100.00;100858.86;1721884;83;21531;-89
2022/05/25 01:22:24;;;;;;;13.22;8.38;;;;;;;6.70;100.00;100859.02;1727440;83;21072;-89
2022/05/25 01:25:24;;;;;;;14.78;8.95;;;;;;;6.68;100.00;100858.29;1727456;83;20978;-89
2022/05/25 01:27:54;;;;;;;13.48;8.40;;;;;;;6.66;100.00;100855.77;1727538;82;21060;-88
2022/05/25 01:30:37;;;;;;;12.98;8.58;;;;;;;6.61;100.00;100854.72;1727629;82;21415;-88
2022/05/25 01:33:22;;;;;;;12.88;7.75;;;;;;;6.60;100.00;100855.67;1727564;82;21033;-87
2022/05/25 01:36:06;;;;;;;12.18;8.20;;;;;;;6.57;100.00;100859.70;1720122;83;21018;-91
2022/05/25 01:39:03;;;;;;;11.68;8.68;;;;;;;6.54;100.00;100863.73;1715250;82;21147;-88
2022/05/25 01:42:09;;;;;;;11.57;9.30;;;;;;;6.52;100.00;100864.30;1727685;83;21140;-88
2022/05/25 01:44:48;;;;;;;13.08;8.75;;;;;;;6.52;100.00;100868.63;1711035;83;22312;-90
2022/05/25 01:47:15;;;;;;;11.50;8.33;;;;;;;6.54;100.00;100870.20;1716385;82;21025;-88
2022/05/25 01:50:10;;;;;;;13.70;7.70;;;;;;;6.56;100.00;100866.27;1727327;82;21089;-89
2022/05/25 01:52:45;;;;;;;12.80;8.43;;;;;;;6.57;100.00;100867.47;1727369;82;21070;-90
2022/05/25 01:55:21;;;;;;;14.20;8.70;;;;;;;6.63;100.00;100876.66;1724790;82;20991;-90
2022/05/25 01:57:55;;;;;;;12.75;8.53;;;;;;;6.64;100.00;100875.74;1717189;83;21876;-90
2022/05/25 02:00:46;;;;;;;13.38;9.10;;;;;;;6.63;100.00;100883.95;1722311;83;21053;-91
2022/05/25 02:06:32;;;;;;;11.88;9.48;;;;;;;6.67;100.00;100886.38;1728191;83;21570;-89
2022/05/25 02:09:33;;;;;;;12.50;8.83;;;;;;;6.68;100.00;100891.94;1726867;83;20997;-90
2022/05/25 02:12:27;;;;;;;14.60;8.95;;;;;;;6.69;100.00;100892.31;1728633;83;21434;-90
2022/05/25 02:15:07;;;;;;;11.20;8.40;;;;;;;6.68;100.00;100894.52;1727959;82;21034;-89
2022/05/25 02:17:52;;;;;;;11.55;8.03;;;;;;;6.65;100.00;100896.79;1728142;83;21076;-88
2022/05/25 02:20:54;;;;;;;11.73;8.53;;;;;;;6.65;100.00;100902.44;1727812;82;21406;-89
2022/05/25 02:23:40;;;;;;;;;;;;;;;6.65;100.00;100906.32;1731257;83;21117;-90
2022/05/25 02:26:15;;;;;;;12.23;8.68;;;;;;;6.67;100.00;100912.26;1727460;83;21169;-90
2022/05/25 02:28:51;;;;;;;12.10;8.83;;;;;;;6.71;100.00;100908.57;1725926;83;21021;-88
2022/05/25 02:31:24;;;;;;;13.58;9.03;;;;;;;6.80;100.00;100906.78;1719589;83;21026;-89
2022/05/25 02:33:57;;;;;;;12.20;7.90;;;;;;;6.91;100.00;100915.25;1728393;82;21177;-90
2022/05/25 02:36:26;;;;;;;11.00;8.70;;;;;;;6.97;100.00;100921.85;1721468;82;21059;-90
2022/05/25 02:38:53;;;;;;;11.95;8.95;;;;;;;7.11;100.00;100921.91;1727630;82;21123;-90
2022/05/25 02:41:34;;;;;;;12.80;8.35;;;;;;;7.30;100.00;100920.89;1703431;83;21066;-90
2022/05/25 02:44:03;;;;;;;11.30;8.28;;;;;;;7.47;100.00;100919.48;1697317;83;21049;-90
2022/05/25 02:46:30;;;;;;;12.25;9.40;;;;;;;7.63;100.00;100922.48;1697357;83;21010;-90
2022/05/25 02:48:59;;;;;;;9.83;7.58;;;;;;;7.80;100.00;100919.75;1697112;83;21120;-91
2022/05/25 02:51:26;;;;;;;9.93;8.60;;;;;;;7.99;100.00;100921.23;1697067;83;21892;-91
2022/05/25 02:53:54;;;;;;;9.83;7.60;;;;;;;8.16;100.00;100925.44;1696973;83;21038;-89
2022/05/25 02:56:21;;;;;;;10.58;7.78;;;;;;;8.31;100.00;100928.84;1697228;84;21374;-91
2022/05/25 02:58:48;;;;;;;9.70;7.75;;;;;;;8.45;100.00;100921.53;1697117;83;21065;-88
2022/05/25 03:01:15;;;;;;;11.15;8.18;;;;;;;8.58;100.00;100926.36;1697314;83;21064;-87
2022/05/25 03:03:42;;;;;;;11.73;8.55;;;;;;;8.69;100.00;100920.52;1697301;83;21847;-87
2022/05/25 03:06:09;;;;;;;12.33;8.48;;;;;;;8.81;100.00;100930.12;1697198;83;21084;-90
2022/05/25 03:08:41;;;;;;;10.48;8.08;;;;;;;8.92;100.00;100931.22;1697219;83;21021;-90
2022/05/25 03:11:10;;;;;;;9.75;8.73;;;;;;;9.02;100.00;100933.59;1697183;83;21022;-88
2022/05/25 03:13:38;;;;;;;13.78;9.20;;;;;;;9.16;100.00;100944.41;1697109;83;21586;-88
2022/05/25 03:16:12;;;;;;;13.53;8.30;;;;;;;9.32;100.00;100944.27;1697185;84;21223;-87
2022/05/25 03:18:38;;;;;;;11.22;8.08;;;;;;;9.46;100.00;100947.25;1693547;83;21147;-89
2022/05/25 03:21:06;;;;;;;10.82;7.90;;;;;;;9.58;100.00;100947.77;1697380;84;21646;-88
2022/05/25 03:23:33;;;;;;;11.40;8.40;;;;;;;9.74;100.00;100949.35;1697629;84;21545;-89
2022/05/25 03:26:01;;;;;;;8.53;7.15;;;;;;;9.89;100.00;100952.70;1697510;83;21163;-88
2022/05/25 03:28:28;;;;;;;11.30;7.83;;;;;;;10.00;100.00;100946.78;1697723;83;21529;-91
2022/05/25 03:30:55;;;;;;;9.13;5.70;;;;;;;10.12;100.00;100946.42;1697448;83;21025;-91
2022/05/25 03:33:22;;;;;;;6.58;5.58;;;;;;;10.25;100.00;100946.75;1697549;84;21633;-91
2022/05/25 03:35:50;;;;;;;7.42;5.78;;;;;;;10.38;100.00;100951.16;1697697;84;21041;-91
2022/05/25 03:38:17;;;;;;;9.63;5.90;;;;;;;10.47;100.00;100952.28;1697342;83;21064;-90
2022/05/25 03:40:45;;;;;;;7.33;5.83;;;;;;;10.55;100.00;100956.05;1697286;82;21167;-91
2022/05/25 03:43:15;;;;;;;7.33;5.85;;;;;;;10.65;100.00;100954.92;1697339;83;21081;-92
2022/05/25 03:45:43;;;;;;;7.55;5.78;;;;;;;10.77;100.00;100967.55;1697643;83;21096;-93
2022/05/25 03:48:10;;;;;;;10.78;6.60;;;;;;;10.86;100.00;100963.45;1697441;84;21057;-94
2022/05/25 03:50:40;;;;;;;8.83;5.67;;;;;;;10.97;100.00;100964.02;1697231;84;21064;-88
2022/05/25 03:53:10;;;;;;;7.25;6.17;;;;;;;11.08;100.00;100959.34;1697404;83;21828;-92
2022/05/25 03:55:37;;;;;;;8.33;5.43;;;;;;;11.18;100.00;100958.56;1697581;83;21009;-93
2022/05/25 03:58:05;;;;;;;10.35;6.15;;;;;;;11.31;100.00;100957.66;1697334;83;21614;-93
2022/05/25 04:00:33;;;;;;;6.78;5.58;;;;;;;11.41;100.00;100960.45;1697418;84;21061;-93
2022/05/25 04:03:02;;;;;;;7.75;5.62;;;;;;;11.51;100.00;100963.56;1697452;84;21018;-91
2022/05/25 04:05:31;;;;;;;8.40;5.40;;;;;;;11.63;100.00;100967.04;1697033;83;22221;-94
2022/05/25 04:08:00;;;;;;;6.40;5.20;;;;;;;11.74;100.00;100961.48;1697053;84;21034;-94
2022/05/25 04:10:29;;;;;;;8.88;5.50;;;;;;;11.83;100.00;100966.86;1697505;84;21057;-91
2022/05/25 04:12:58;;;;;;;5.70;4.67;;;;;;;11.94;100.00;100963.44;1697273;84;21479;-94
2022/05/25 04:15:28;;;;;;;6.67;4.97;;;;;;;12.07;100.00;100959.92;1697591;83;21009;-94
2022/05/25 04:17:58;;;;;;;5.62;4.42;;;;;;;12.19;100.00;100962.91;1697375;84;21204;-95
2022/05/25 04:20:28;;;;;;;7.03;5.15;;;;;;;12.33;100.00;100966.23;1697402;83;20990;-95
2022/05/25 04:22:55;;;;;;;6.20;4.92;;;;;;;12.44;100.00;100964.95;1697390;83;21031;-89
2022/05/25 04:25:25;;;;;;;7.05;4.55;;;;;;;12.56;100.00;100970.51;1697662;84;21053;-90
2022/05/25 04:27:54;;;;;;;5.80;4.87;;;;;;;12.67;100.00;100967.54;1697502;83;21100;-89
2022/05/25 04:30:26;;;;;;;8.03;4.62;;;;;;;12.78;100.00;100962.28;1697325;83;21158;-90
2022/05/25 04:32:53;;;;;;;5.75;5.08;;;;;;;12.90;100.00;100966.55;1697390;83;21025;-90
2022/05/25 04:35:23;;;;;;;8.80;5.53;;;;;;;13.02;100.00;100972.59;1697284;83;21017;-92
2022/05/25 04:37:54;;;;;;;6.60;4.85;;;;;;;13.13;100.00;100972.21;1697443;84;21080;-92
2022/05/25 04:40:32;;;;;;;7.03;5.00;;;;;;;13.24;100.00;100973.01;1697451;83;21064;-91
2022/05/25 04:43:04;;;;;;;8.75;4.83;;;;;;;13.36;100.00;100962.48;1728002;81;21553;-89
2022/05/25 04:45:32;;;;;;;6.37;4.62;;;;;;;13.50;100.00;100970.55;1675693;84;21081;-92
2022/05/25 04:48:01;;;;;;;7.05;4.67;;;;;;;13.63;100.00;100975.61;1736258;81;21067;-91
2022/05/25 04:50:34;;;;;;;7.67;4.65;;;;;;;13.76;100.00;100974.12;1735443;82;21068;-94
2022/05/25 04:53:06;;;;;;;6.53;4.75;;;;;;;13.89;100.00;100965.59;1741034;81;21055;-93
2022/05/25 04:58:35;;;;;;;8.48;4.92;;;;;;;14.10;100.00;100968.19;1697282;84;21144;-92
2022/05/25 05:01:06;;;;;;;9.88;4.40;;;;;;;14.25;100.00;100970.46;1728076;83;21550;-89
2022/05/25 05:03:33;;;;;;;4.78;3.85;;;;;;;14.42;100.00;100966.42;1697493;84;21089;-94
2022/05/25 05:06:03;;;;;;;5.85;4.08;;;;;;;14.61;100.00;100968.27;1728412;83;21060;-93
2022/05/25 05:08:31;;;;;;;6.30;4.53;;;;;;;14.76;100.00;100968.74;1697213;84;21157;-91
2022/05/25 05:11:09;;;;;;;5.05;4.28;;;;;;;14.83;100.00;100974.64;1777194;80;20999;-92
2022/05/25 05:13:38;;;;;;;5.72;4.10;;;;;;;14.90;100.00;100968.85;1775735;79;21053;-92
2022/05/25 05:20:05;;;;;;;6.22;3.90;;;;;;;15.13;100.00;100969.45;1749876;80;21045;-92
2022/05/25 05:22:32;;;;;;;5.00;4.00;;;;;;;15.35;100.00;100973.58;1733702;81;21919;-88
2022/05/25 05:24:59;;;;;;;4.67;3.45;;;;;;;15.50;100.00;100972.69;1733607;81;21530;-90
2022/05/25 05:27:26;;;;;;;5.97;3.62;;;;;;;15.64;100.00;100970.14;1733704;82;21029;-89
2022/05/25 05:29:53;;;;;;;4.58;3.60;;;;;;;15.78;100.00;100973.63;1733348;81;21049;-91
2022/05/25 05:32:20;;;;;;;5.50;3.50;;;;;;;15.93;100.00;100980.63;1733737;81;21130;-90
2022/05/25 05:34:48;;;;;;;4.58;3.30;;;;;;;16.06;100.00;100978.16;1733445;82;21215;-90
2022/05/25 05:37:20;;;;;;;4.85;3.27;;;;;;;16.20;100.00;100971.63;1735959;80;21072;-89
2022/05/25 05:39:51;;;;;;;3.83;3.30;;;;;;;16.35;100.00;100974.13;1765958;80;21077;-90
2022/05/25 05:42:20;;;;;;;;;;;;;;;16.51;100.00;100975.31;1761837;80;21069;-91
2022/05/25 05:44:52;;;;;;;6.42;4.03;;;;;;;16.67;100.00;100975.50;1756055;81;20165;-91
2022/05/25 05:47:24;;;;;;;5.67;3.72;;;;;;;16.82;100.00;100976.31;1747406;80;21318;-90
2022/05/25 05:49:52;;;;;;;4.85;3.47;;;;;;;16.95;97.76;100979.94;1773428;80;20974;-91
2022/05/25 05:52:19;;;;;;;4.53;3.67;;;;;;;17.10;100.00;100977.64;1787147;80;21459;-90
2022/05/25 05:54:46;;;;;;;5.45;4.17;;;;;;;17.23;97.94;100974.14;1722882;83;21744;-90
2022/05/25 05:57:15;;;;;;;6.00;3.77;;;;;;;17.29;93.00;100978.80;1752315;81;21089;-91
2022/05/25 05:59:43;;;;;;;5.72;3.75;;;;;;;17.38;91.75;100978.39;1752502;81;21271;-91
2022/05/25 06:02:10;;;;;;;5.17;3.37;;;;;;;17.48;92.89;100981.75;1752379;81;21088;-88
2022/05/25 06:04:37;;;;;;;6.08;3.05;;;;;;;17.65;89.59;100980.09;1752478;81;21045;-91
2022/05/25 06:07:04;;;;;;;3.52;2.87;;;;;;;17.80;75.72;100985.61;1752474;81;21065;-91
2022/05/25 06:09:33;;;;;;;3.20;2.90;;;;;;;17.88;73.43;100994.08;1752809;81;21105;-91
2022/05/25 06:12:00;;;;;;;4.72;3.12;;;;;;;17.92;68.53;100991.95;1752721;81;21637;-91
2022/05/25 06:14:27;;;;;;;3.52;3.00;;;;;;;17.94;70.44;100998.72;1752512;81;21105;-92
2022/05/25 06:19:41;;;;;;;2.92;2.72;;;;;;;18.09;68.84;100993.75;1749236;81;21060;-91
2022/05/25 06:22:15;;;;;;;5.42;3.33;;;;;;;18.20;70.84;100999.72;1748437;80;20997;-89
2022/05/25 06:24:50;;;;;;;3.33;2.75;;;;;;;18.34;86.00;100998.31;1750991;81;21101;-91
2022/05/25 06:27:20;;;;;;;2.67;2.42;;;;;;;18.53;80.12;100997.25;1756578;80;21037;-91
2022/05/25 06:29:50;;;;;;;3.92;2.60;;;;;;;18.73;71.37;101003.09;1755773;81;21010;-91
2022/05/25 06:32:22;;;;;;;6.75;3.05;;;;;;;18.84;67.80;101000.66;1759264;81;21101;-91
2022/05/25 06:34:52;;;;;;;5.87;2.90;;;;;;;18.94;66.64;101004.52;1759059;81;21096;-90
2022/05/25 06:37:24;;;;;;;3.52;2.70;;;;;;;19.01;67.00;101001.06;1777789;79;21177;-91
2022/05/25 06:39:51;;;;;;;3.58;2.75;;;;;;;19.09;61.11;101004.23;1771542;81;21052;-91
2022/05/25 06:42:18;;;;;;;3.95;2.67;;;;;;;19.15;64.58;101000.94;1767378;81;21052;-91
2022/05/25 06:44:48;;;;;;;6.22;2.90;;;;;;;19.21;62.11;101004.23;1764948;81;21064;-91
2022/05/25 06:47:17;;;;;;;5.05;2.90;;;;;;;19.26;62.40;101006.39;1765028;81;21485;-90
2022/05/25 06:49:46;;;;;;;3.20;2.90;;;;;;;19.31;58.47;101008.54;1742874;81;21100;-91
2022/05/25 06:52:14;;;;;;;5.92;3.08;;;;;;;19.37;67.11;101009.20;1767582;81;21605;-93
2022/05/25 06:54:42;;;;;;;4.87;2.75;;;;;;;19.51;64.37;101011.69;1768252;81;21152;-91
2022/05/25 06:57:11;;;;;;;4.17;2.50;;;;;;;19.68;62.13;101016.47;1768276;81;21554;-92
2022/05/25 06:59:38;;;;;;;5.03;2.40;;;;;;;19.78;59.24;101014.49;1768191;81;21053;-90
2022/05/25 07:02:06;;;;;;;4.33;2.72;;;;;;;19.89;61.61;101023.92;1768595;81;21475;-90
2022/05/25 07:04:34;;;;;;;4.35;2.70;;;;;;;19.94;55.83;101020.30;1767921;81;21057;-90
2022/05/25 07:07:02;;;;;;;3.75;2.27;;;;;;;19.99;53.79;101023.25;1768231;81;20985;-91
2022/05/25 07:09:33;;;;;;;4.42;2.45;;;;;;;20.09;58.30;101023.06;1768266;81;21041;-92
2022/05/25 07:12:01;;;;;;;3.80;2.47;;;;;;;20.22;54.64;101029.66;1708666;81;21075;-93
2022/05/25 07:14:28;;;;;;;3.05;2.75;;;;;;;20.30;54.00;101022.52;1737740;82;21165;-92
2022/05/25 07:16:55;;;;;;;4.50;2.62;;;;;;;20.35;53.67;101018.56;1737852;81;21017;-91
2022/05/25 07:19:23;;;;;;;2.90;2.40;;;;;;;20.44;53.78;101022.33;1737584;81;21131;-91
2022/05/25 07:21:50;;;;;;;2.62;2.30;;;;;;;20.53;48.30;101010.39;1737515;82;21013;-91
2022/05/25 07:24:18;;;;;;;2.55;2.25;;;;;;;20.60;50.07;101012.67;1737855;81;21120;-90
2022/05/25 07:26:45;;;;;;;3.40;2.75;;;;;;;20.65;44.42;101015.62;1737391;82;21859;-90
2022/05/25 07:29:14;;;;;;;3.22;2.40;;;;;;;20.61;49.72;101014.33;1737771;82;21056;-90
2022/05/25 07:31:55;;;;;;;2.87;2.08;;;;;;;20.62;50.23;101012.82;1737795;81;21275;-90
2022/05/25 07:34:25;;;;;;;3.37;2.50;;;;;;;20.70;50.22;101021.23;1733280;81;21000;-90
2022/05/25 07:37:02;;;;;;;2.80;2.20;;;;;;;20.76;43.37;101017.92;1737285;82;21531;-91
2022/05/25 07:39:39;;;;;;;5.17;2.33;;;;;;;20.75;42.63;101021.56;1726732;81;21234;-90
2022/05/25 07:42:12;;;;;;;2.55;1.92;;;;;;;20.79;48.02;101014.91;1753670;81;21323;-90
2022/05/25 07:44:47;;;;;;;2.83;2.00;;;;;;;20.83;43.75;101011.93;1754121;80;21120;-91
2022/05/25 07:47:14;;;;;;;1.87;1.70;;;;;;;20.87;44.21;101018.55;1750585;80;21562;-89
2022/05/25 07:49:43;;;;;;;3.77;2.15;;;;;;;20.88;47.98;101029.43;1753963;81;21002;-90
2022/05/25 07:52:10;;;;;;;3.67;1.90;;;;;;;20.93;42.37;101021.81;1754038;81;21137;-89
2022/05/25 07:54:43;;;;;;;2.58;1.85;;;;;;;20.90;39.96;101020.83;1753865;80;21070;-90
2022/05/25 07:57:12;;;;;;;2.37;1.62;;;;;;;20.92;42.51;101032.88;1754084;81;21010;-91
2022/05/25 07:59:40;;;;;;;2.20;2.00;;;;;;;21.04;40.79;101026.69;1753911;81;21692;-91
2022/05/25 08:07:53;;;;;;;2.27;2.08;;;;;;;21.27;38.21;101032.53;1652058;86;21460;-91
2022/05/25 08:10:24;;;;;;;2.75;1.92;;;;;;;21.23;39.37;101040.49;1713573;81;21108;-90
2022/05/25 08:12:55;;;;;;;2.35;1.60;;;;;;;21.22;39.64;101033.06;1770245;81;21656;-91
2022/05/25 08:15:24;;;;;;;4.42;2.05;;;;;;;21.32;44.57;101034.14;1771184;81;21562;-90
2022/05/25 08:17:53;;;;;;;2.37;1.80;;;;;;;21.53;42.31;101039.28;1771216;81;21145;-90
2022/05/25 08:20:21;;;;;;;2.75;1.95;;;;;;;21.68;41.56;101030.09;1770811;81;21513;-90
2022/05/25 08:22:49;;;;;;;2.90;1.67;;;;;;;21.81;40.59;101042.73;1771292;81;21013;-91
2022/05/25 08:25:19;;;;;;;1.92;1.80;;;;;;;21.91;40.12;101036.69;1742994;81;21530;-91
2022/05/25 08:27:46;;;;;;;4.60;1.80;;;;;;;22.00;41.48;101035.58;1771008;81;21001;-92
2022/05/25 08:30:19;;;;;;;3.15;2.02;;;;;;;22.12;40.11;101038.61;1767030;81;21170;-90
2022/05/25 08:32:47;;;;;;;2.83;1.50;;;;;;;22.20;37.70;101036.39;1751894;81;21025;-90
2022/05/25 08:35:15;;;;;;;3.27;1.87;;;;;;;22.27;39.53;101040.47;1770736;81;21068;-91
2022/05/25 08:37:44;;;;;;;3.20;2.20;;;;;;;22.34;38.78;101036.08;1771117;81;21083;-90
2022/05/25 08:40:17;;;;;;;2.12;1.70;;;;;;;22.28;37.54;101034.98;1728377;81;21037;-91
2022/05/25 08:42:59;;;;;;;2.92;1.98;;;;;;;22.20;39.98;101037.72;1757531;81;21108;-89
2022/05/25 08:45:45;;;;;;;2.25;1.90;;;;;;;22.25;42.52;101031.36;1767664;81;21048;-90
2022/05/25 08:48:16;;;;;;;5.62;2.20;;;;;;;22.41;38.25;101033.53;1767296;81;21568;-90
2022/05/25 08:50:46;;;;;;;2.05;1.70;;;;;;;22.49;38.79;101034.77;1768378;81;21009;-90
2022/05/25 08:53:14;;;;;;;2.45;1.80;;;;;;;22.58;41.20;101031.52;1763305;81;21009;-90
2022/05/25 08:56:24;;;;;;;3.35;1.95;;;;;;;22.71;37.38;101034.34;1767920;81;21120;-89
2022/05/25 08:58:57;;;;;;;2.40;1.70;;;;;;;22.77;42.54;101036.23;1768330;81;21163;-91
2022/05/25 09:01:44;;;;;;;2.77;1.77;;;;;;;22.92;38.36;101034.05;1764386;81;21725;-91
2022/05/25 09:04:51;;;;;;;2.05;1.80;;;;;;;23.04;36.71;101030.40;1766267;81;21073;-90
2022/05/25 09:07:51;;;;;;;2.15;1.55;;;;;;;23.20;37.47;101036.03;1766630;81;21139;-89
2022/05/25 09:10:19;;;;;;;1.77;1.65;;;;;;;23.42;37.42;101037.67;1756231;80;21287;-89
2022/05/25 09:13:01;;;;;;;2.12;1.80;;;;;;;23.13;36.91;101035.43;1756525;80;21153;-91
2022/05/25 09:16:15;;;;;;;2.00;1.80;;;;;;;22.80;36.54;101031.05;1783334;79;21002;-90
2022/05/25 09:18:13;;;;;;;2.47;1.70;;;;;;;22.75;40.97;101030.80;1790017;79;21033;-90
2022/05/25 09:20:50;;;;;;;2.70;2.20;;;;;;;23.02;40.03;101036.42;1786475;80;21140;-90
2022/05/25 09:23:19;;;;;;;2.25;2.05;;;;;;;22.94;37.26;101036.02;1763818;80;21138;-90
2022/05/25 09:25:47;;;;;;;2.77;1.72;;;;;;;22.39;38.16;101039.03;1758246;80;21531;-88
2022/05/25 09:28:22;;;;;;;1.98;1.77;;;;;;;21.87;41.69;101044.15;1756757;81;21484;-89
2022/05/25 09:30:54;;;;;;;2.02;1.65;;;;;;;21.51;39.50;101047.92;1759495;81;21054;-89
2022/05/25 09:33:46;;;;;;;2.08;1.70;;;;;;;21.22;38.14;101044.97;1755743;81;21102;-88
2022/05/25 09:36:19;;;;;;;2.20;1.60;;;;;;;21.06;39.42;101049.85;1755614;81;21107;-89
2022/05/25 09:39:07;;;;;;;2.47;1.77;;;;;;;21.18;43.44;101046.82;1753399;81;21520;-89
2022/05/25 09:41:34;;;;;;;4.20;1.90;;;;;;;21.56;39.74;101042.91;1755274;80;21073;-87
2022/05/25 09:44:06;;;;;;;1.98;1.67;;;;;;;22.00;37.93;101042.21;1748896;81;21037;-91
2022/05/25 09:46:43;;;;;;;1.90;1.60;;;;;;;22.39;38.77;101044.34;1770869;81;21085;-89
2022/05/25 09:49:26;;;;;;;2.47;1.80;;;;;;;22.74;38.45;101033.98;1771207;81;21084;-89
2022/05/25 09:51:54;;;;;;;2.02;1.87;;;;;;;23.07;39.48;101046.81;1769931;81;21017;-89
2022/05/25 09:54:33;;;;;;;4.70;1.70;;;;;;;23.10;35.46;101050.92;1771253;81;21041;-89
2022/05/25 09:57:15;;;;;;;1.65;1.50;;;;;;;22.83;37.28;101043.97;1731966;81;21387;-90
2022/05/25 10:00:00;;;;;;;1.52;1.42;;;;;;;22.27;37.13;101046.59;1738155;81;21080;-90
2022/05/25 10:02:31;;;;;;;2.72;1.72;;;;;;;21.78;38.77;101053.20;1704984;82;21412;-89
2022/05/25 10:05:15;;;;;;;3.10;1.72;;;;;;;21.39;39.04;101048.33;1736105;82;21073;-89
2022/05/25 10:08:06;;;;;;;1.90;1.75;;;;;;;21.07;39.92;101046.72;1753304;81;21551;-90
2022/05/25 10:11:02;;;;;;;2.72;1.77;;;;;;;21.12;40.60;101045.18;1713438;83;21017;-89
2022/05/25 10:13:32;;;;;;;4.03;1.75;;;;;;;21.53;38.52;101036.14;1740181;81;21608;-91
2022/05/25 10:16:01;;;;;;;2.00;1.47;;;;;;;21.76;36.56;101036.65;1700817;83;21065;-89
2022/05/25 10:18:41;;;;;;;3.33;1.47;;;;;;;21.70;38.52;101043.99;1736596;81;21065;-89
2022/05/25 10:21:24;;;;;;;2.95;1.67;;;;;;;21.53;38.33;101039.28;1752435;81;21049;-88
2022/05/25 10:23:55;;;;;;;1.55;1.45;;;;;;;21.52;39.47;101035.81;1708427;81;21609;-90
2022/05/25 10:26:35;;;;;;;1.92;1.70;;;;;;;21.67;40.18;101029.25;1737250;81;21566;-91
2022/05/25 10:29:10;;;;;;;2.40;1.72;;;;;;;21.85;37.42;101034.73;1749128;81;21261;-87
2022/05/25 10:37:39;;;;;;;3.33;1.65;;;;;;;22.58;38.87;101016.41;1753410;81;21136;-89
2022/05/25 10:40:09;;;;;;;1.85;1.67;;;;;;;22.95;38.01;101018.59;1746582;80;21096;-89
2022/05/25 10:42:45;;;;;;;2.77;1.75;;;;;;;23.26;40.36;101019.33;1723268;82;21856;-89
2022/05/25 10:45:20;;;;;;;3.72;1.70;;;;;;;23.50;35.38;101012.81;1735052;82;21539;-89
2022/05/25 10:48:07;;;;;;;2.05;1.60;;;;;;;23.73;34.95;101011.77;1764963;81;21613;-88
2022/05/25 10:51:00;;;;;;;1.50;1.40;;;;;;;24.04;34.78;101008.72;1755599;81;21077;-88
2022/05/25 10:57:17;;;;;;;2.37;1.20;;;;;;;24.12;34.35;101014.92;1747323;81;21170;-89
2022/05/25 11:00:12;;;;;;;2.15;1.50;;;;;;;23.60;33.82;101017.80;1732345;82;20997;-89
2022/05/25 11:03:04;;;;;;;3.37;1.80;;;;;;;22.93;35.31;101021.09;1737119;81;21073;-91
2022/05/25 11:05:56;;;;;;;;;;;;;;;22.44;38.08;101021.23;1750878;82;20964;-89
2022/05/25 11:08:40;;;;;;;2.90;1.80;;;;;;;22.14;38.32;101022.03;1749914;81;20208;-91
2022/05/25 11:11:43;;;;;;;1.98;1.72;;;;;;;21.96;38.79;101029.01;1739622;81;21292;-90
2022/05/25 11:14:36;;;;;;;1.57;1.30;;;;;;;21.89;38.46;101015.64;1734863;82;20997;-89
2022/05/25 11:17:23;;;;;;;1.67;1.57;;;;;;;22.12;36.51;101006.79;1748180;81;21053;-89
2022/05/25 11:20:05;;;;;;;2.05;1.47;;;;;;;22.51;35.14;101008.88;1776691;80;21047;-88
2022/05/25 11:22:58;;;;;;;3.92;1.60;;;;;;;22.88;37.25;100999.09;1755940;81;21502;-90
2022/05/25 11:26:04;;;;;;;1.80;1.70;;;;;;;23.21;35.11;100997.31;1775431;80;21251;-91
2022/05/25 11:28:44;;;;;;;6.00;1.62;;;;;;;23.52;32.48;101000.66;1750452;81;21126;-89
2022/05/25 11:31:19;;;;;;;2.25;1.80;;;;;;;23.75;35.59;101005.23;1747488;80;21045;-90
2022/05/25 11:34:18;;;;;;;3.17;1.40;;;;;;;23.97;35.09;101014.50;1759928;80;21057;-90
2022/05/25 11:37:08;;;;;;;3.40;1.60;;;;;;;23.93;35.49;101011.41;1778557;80;21097;-89
2022/05/25 11:40:04;;;;;;;1.77;1.47;;;;;;;24.02;37.06;101011.27;1692162;82;21153;-89
2022/05/25 11:42:45;;;;;;;2.65;1.55;;;;;;;24.24;35.20;101006.70;1740074;81;21089;-90
2022/05/25 11:45:50;;;;;;;1.87;1.50;;;;;;;24.43;32.46;101008.33;1730296;81;21066;-89
2022/05/25 11:48:39;;;;;;;1.45;1.32;;;;;;;24.40;33.74;100999.72;1737985;81;21100;-88
2022/05/25 11:51:22;;;;;;;2.70;1.60;;;;;;;24.64;32.89;101000.70;1728484;81;21145;-91
2022/05/25 11:54:10;;;;;;;2.67;1.40;;;;;;;24.89;32.64;100993.05;1759527;80;21271;-89
2022/05/25 11:57:01;;;;;;;1.80;1.52;;;;;;;25.10;34.29;100985.41;1763079;80;21081;-88
2022/05/25 11:59:49;;;;;;;1.95;1.60;;;;;;;25.20;31.45;100987.66;1737820;81;21102;-88
2022/05/25 12:02:39;;;;;;;2.90;1.60;;;;;;;25.23;32.77;100986.44;1745009;81;21129;-89
2022/05/25 12:06:05;;;;;;;2.08;1.60;;;;;;;25.33;32.16;100983.67;1742821;81;21091;-90
2022/05/25 12:08:50;;;;;;;3.27;1.75;;;;;;;25.32;32.36;100985.22;1764056;81;21874;-90
2022/05/25 12:11:35;;;;;;;1.67;1.55;;;;;;;25.34;33.00;100979.17;1754254;79;21030;-89
2022/05/25 12:14:58;;;;;;;2.83;1.60;;;;;;;25.45;32.57;100987.09;1736750;81;21590;-89
2022/05/25 12:17:46;;;;;;;1.75;1.50;;;;;;;25.54;31.68;100991.20;1741149;81;21046;-89
2022/05/25 12:20:18;;;;;;;1.67;1.40;;;;;;;25.67;33.00;100983.18;1749524;81;21036;-90
2022/05/25 12:22:52;;;;;;;1.82;1.50;;;;;;;25.69;32.29;100985.63;1739333;82;21126;-89
2022/05/25 12:25:20;;;;;;;5.25;1.50;;;;;;;25.47;31.48;100987.19;1760955;81;21073;-89
2022/05/25 12:27:52;;;;;;;1.87;1.30;;;;;;;25.17;31.48;100987.56;1743180;81;21401;-89
2022/05/25 12:30:47;;;;;;;2.17;1.72;;;;;;;24.96;30.82;100988.55;1756285;81;21057;-89